createdAt,value
2022-11-18T00:00:08.903Z,99330.96
2022-11-18T00:02:57.233Z,99329.48
2022-11-18T00:05:25.485Z,99326.14
2022-11-18T00:07:53.804Z,99330.80
2022-11-18T00:10:22.093Z,99331.15
2022-11-18T00:13:09.311Z,99325.73
2022-11-18T00:15:37.674Z,99327.23
2022-11-18T00:18:06.081Z,99322.41
2022-11-18T00:20:35.432Z,99319.54
2022-11-18T00:23:03.699Z,99321.77
2022-11-18T00:25:34.700Z,99321.56
2022-11-18T00:28:03.016Z,99327.69
2022-11-18T00:30:31.368Z,99329.80
2022-11-18T00:32:59.673Z,99330.21
2022-11-18T00:35:28.032Z,99329.94
2022-11-18T00:37:56.353Z,99335.60
2022-11-18T00:40:26.120Z,99335.64
2022-11-18T00:42:54.503Z,99333.46
2022-11-18T00:45:23.954Z,99330.62
2022-11-18T00:47:52.377Z,99333.38
2022-11-18T00:50:20.628Z,99335.08
2022-11-18T00:52:49.023Z,99338.85
2022-11-18T00:55:17.354Z,99339.73
2022-11-18T00:57:45.690Z,99337.05
2022-11-18T01:00:14.321Z,99342.19
2022-11-18T01:02:42.654Z,99343.27
2022-11-18T01:05:10.930Z,99346.04
2022-11-18T01:07:39.445Z,99342.16
2022-11-18T01:10:08.122Z,99338.83
2022-11-18T01:12:55.951Z,99339.53
2022-11-18T01:15:24.373Z,99339.91
2022-11-18T01:17:52.692Z,99334.33
2022-11-18T01:20:20.988Z,99338.60
2022-11-18T01:22:49.309Z,99339.00
2022-11-18T01:25:17.617Z,99342.45
2022-11-18T01:27:45.893Z,99339.94
2022-11-18T01:30:14.970Z,99343.38
2022-11-18T01:32:44.271Z,99339.68
2022-11-18T01:35:12.678Z,99338.37
2022-11-18T01:37:41.105Z,99336.04
2022-11-18T01:40:13.194Z,99334.88
2022-11-18T01:42:41.537Z,99338.95
2022-11-18T01:45:32.695Z,99342.52
2022-11-18T01:48:05.089Z,99349.84
2022-11-18T01:50:37.251Z,99348.48
2022-11-18T01:53:10.758Z,99346.45
2022-11-18T01:55:44.244Z,99343.40
2022-11-18T01:58:31.965Z,99346.10
2022-11-18T02:01:00.879Z,99342.22
2022-11-18T02:03:29.769Z,99335.92
2022-11-18T02:06:01.728Z,99333.02
2022-11-18T02:08:31.153Z,99329.77
2022-11-18T02:10:59.459Z,99332.29
2022-11-18T02:13:27.837Z,99331.05
2022-11-18T02:16:03.323Z,99332.39
2022-11-18T02:19:00.716Z,99326.41
2022-11-18T02:21:40.602Z,99328.93
2022-11-18T02:24:46.675Z,99330.42
2022-11-18T02:27:40.874Z,99328.86
2022-11-18T02:30:12.252Z,99327.13
2022-11-18T02:33:09.085Z,99326.60
2022-11-18T02:35:45.284Z,99328.61
2022-11-18T02:38:31.581Z,99326.41
2022-11-18T02:41:29.294Z,99326.71
2022-11-18T02:44:04.639Z,99325.98
2022-11-18T02:46:36.335Z,99323.59
2022-11-18T02:49:11.229Z,99322.70
2022-11-18T02:51:41.042Z,99317.08
2022-11-18T02:54:12.531Z,99312.81
2022-11-18T02:56:42.678Z,99310.95
2022-11-18T02:59:10.988Z,99313.84
2022-11-18T03:01:40.015Z,99313.66
2022-11-18T03:04:08.355Z,99310.63
2022-11-18T03:07:06.128Z,99308.59
2022-11-18T03:09:39.098Z,99307.44
2022-11-18T03:12:22.571Z,99312.04
2022-11-18T03:14:57.779Z,99313.05
2022-11-18T03:17:38.089Z,99311.19
2022-11-18T03:20:21.720Z,99310.69
2022-11-18T03:23:12.552Z,99306.44
2022-11-18T03:26:25.646Z,99304.23
2022-11-18T03:28:58.884Z,99296.27
2022-11-18T03:31:34.255Z,99290.52
2022-11-18T03:34:09.322Z,99284.77
2022-11-18T03:37:10.473Z,99281.23
2022-11-18T03:39:44.705Z,99277.86
2022-11-18T03:42:35.447Z,99276.52
2022-11-18T03:45:15.030Z,99271.95
2022-11-18T03:47:50.833Z,99268.75
2022-11-18T03:50:23.940Z,99268.09
2022-11-18T03:52:55.377Z,99270.83
2022-11-18T03:55:45.363Z,99265.73
2022-11-18T03:58:24.193Z,99265.39
2022-11-18T04:00:59.693Z,99262.36
2022-11-18T04:03:28.345Z,99256.58
2022-11-18T04:06:16.561Z,99252.84
2022-11-18T04:08:50.987Z,99256.08
2022-11-18T04:11:52.603Z,99255.05
2022-11-18T04:14:21.033Z,99259.61
2022-11-18T04:16:53.598Z,99260.98
2022-11-18T04:19:22.435Z,99262.48
2022-11-18T04:21:51.642Z,99260.42
2022-11-18T04:24:20.002Z,99258.00
2022-11-18T04:26:48.372Z,99255.60
2022-11-18T04:29:16.945Z,99258.29
2022-11-18T04:31:45.651Z,99260.80
2022-11-18T04:34:14.312Z,99263.86
2022-11-18T04:36:42.646Z,99267.21
2022-11-18T04:39:11.029Z,99274.15
2022-11-18T04:41:57.785Z,99283.30
2022-11-18T04:44:32.045Z,99290.91
2022-11-18T04:47:02.991Z,99293.79
2022-11-18T04:49:32.004Z,99288.33
2022-11-18T04:52:01.102Z,99285.60
2022-11-18T04:54:29.759Z,99278.42
2022-11-18T04:56:58.211Z,99276.88
2022-11-18T04:59:29.531Z,99273.96
2022-11-18T05:02:01.260Z,99276.54
2022-11-18T05:04:32.843Z,99277.23
2022-11-18T05:07:04.752Z,99279.23
2022-11-18T05:09:33.196Z,99282.98
2022-11-18T05:12:21.124Z,99284.83
2022-11-18T05:14:50.864Z,99289.92
2022-11-18T05:17:19.664Z,99288.05
2022-11-18T05:19:48.016Z,99289.06
2022-11-18T05:22:16.904Z,99289.90
2022-11-18T05:24:45.204Z,99296.55
2022-11-18T05:27:14.258Z,99297.09
2022-11-18T05:29:42.568Z,99292.15
2022-11-18T05:32:10.978Z,99299.63
2022-11-18T05:34:41.170Z,99302.38
2022-11-18T05:37:09.864Z,99302.71
2022-11-18T05:39:38.272Z,99305.93
2022-11-18T05:42:26.161Z,99310.67
2022-11-18T05:44:58.199Z,99314.74
2022-11-18T05:47:28.028Z,99313.55
2022-11-18T05:49:56.333Z,99318.31
2022-11-18T05:52:24.673Z,99321.03
2022-11-18T05:54:53.100Z,99325.09
2022-11-18T05:57:21.458Z,99326.46
2022-11-18T05:59:49.972Z,99330.03
2022-11-18T06:02:24.204Z,99337.00
2022-11-18T06:05:02.136Z,99340.06
2022-11-18T06:07:39.100Z,99344.48
2022-11-18T06:10:08.248Z,99345.84
2022-11-18T06:12:42.140Z,99345.50
2022-11-18T06:15:16.464Z,99349.95
2022-11-18T06:17:50.061Z,99357.42
2022-11-18T06:20:21.403Z,99359.83
2022-11-18T06:22:53.851Z,99359.51
2022-11-18T06:25:23.108Z,99367.46
2022-11-18T06:27:56.568Z,99370.86
2022-11-18T06:30:24.921Z,99375.12
2022-11-18T06:32:53.495Z,99377.66
2022-11-18T06:35:21.827Z,99385.82
2022-11-18T06:37:50.128Z,99392.95
2022-11-18T06:40:21.874Z,99399.57
2022-11-18T06:43:09.247Z,99398.22
2022-11-18T06:45:37.516Z,99405.20
2022-11-18T06:48:06.274Z,99411.01
2022-11-18T06:50:34.971Z,99413.38
2022-11-18T06:53:03.271Z,99418.83
2022-11-18T06:55:31.596Z,99417.13
2022-11-18T06:57:59.897Z,99424.40
2022-11-18T07:00:28.182Z,99423.55
2022-11-18T07:02:56.484Z,99421.00
2022-11-18T07:05:24.697Z,99423.91
2022-11-18T07:07:53.137Z,99424.77
2022-11-18T07:10:21.531Z,99426.14
2022-11-18T07:12:49.862Z,99421.74
2022-11-18T07:15:18.138Z,99422.59
2022-11-18T07:17:46.469Z,99422.25
2022-11-18T07:20:15.006Z,99427.33
2022-11-18T07:22:43.288Z,99437.68
2022-11-18T07:25:11.624Z,99439.56
2022-11-18T07:27:39.890Z,99442.24
2022-11-18T07:30:08.518Z,99443.95
2022-11-18T07:32:36.897Z,99442.24
2022-11-18T07:35:05.648Z,99446.85
2022-11-18T07:37:33.985Z,99442.77
2022-11-18T07:40:02.347Z,99450.09
2022-11-18T07:42:42.916Z,99447.71
2022-11-18T07:45:12.681Z,99449.59
2022-11-18T07:47:41.065Z,99449.77
2022-11-18T07:50:09.705Z,99452.64
2022-11-18T07:52:38.040Z,99451.96
2022-11-18T07:55:06.719Z,99452.12
2022-11-18T07:57:35.159Z,99451.09
2022-11-18T08:00:04.855Z,99451.09
2022-11-18T08:02:33.275Z,99456.85
2022-11-18T08:05:01.740Z,99458.55
2022-11-18T08:07:30.296Z,99465.17
2022-11-18T08:09:58.660Z,99465.18
2022-11-18T08:12:27.032Z,99460.09
2022-11-18T08:14:55.359Z,99460.45
2022-11-18T08:17:23.725Z,99468.77
2022-11-18T08:19:52.085Z,99463.64
2022-11-18T08:22:21.099Z,99468.41
2022-11-18T08:24:49.387Z,99473.02
2022-11-18T08:27:17.677Z,99474.90
2022-11-18T08:29:45.945Z,99471.02
2022-11-18T08:32:14.263Z,99478.31
2022-11-18T08:34:42.557Z,99476.41
2022-11-18T08:37:10.852Z,99478.45
2022-11-18T08:39:39.921Z,99474.02
2022-11-18T08:42:10.354Z,99474.00
2022-11-18T08:44:38.756Z,99476.87
2022-11-18T08:47:07.064Z,99478.21
2022-11-18T08:49:35.415Z,99477.33
2022-11-18T08:52:03.881Z,99478.50
2022-11-18T08:54:32.174Z,99479.01
2022-11-18T08:57:00.766Z,99477.13
2022-11-18T08:59:29.220Z,99473.16
2022-11-18T09:01:57.573Z,99477.52
2022-11-18T09:04:26.025Z,99474.61
2022-11-18T09:06:54.607Z,99480.21
2022-11-18T09:09:23.588Z,99473.88
2022-11-18T09:11:52.282Z,99475.71
2022-11-18T09:17:10.132Z,99463.48
2022-11-18T09:19:47.812Z,99466.41
2022-11-18T09:22:16.799Z,99467.85
2022-11-18T09:24:45.243Z,99467.86
2022-11-18T09:27:17.130Z,99467.73
2022-11-18T09:29:46.483Z,99471.39
2022-11-18T09:32:15.216Z,99467.31
2022-11-18T09:34:43.586Z,99461.20
2022-11-18T09:37:11.925Z,99460.11
2022-11-18T09:39:40.337Z,99456.83
2022-11-18T09:42:33.243Z,99453.06
2022-11-18T09:45:23.586Z,99460.45
2022-11-18T09:48:00.777Z,99462.09
2022-11-18T09:53:23.085Z,99462.80
2022-11-18T09:55:51.812Z,99465.70
2022-11-18T09:58:30.001Z,99464.17
2022-11-18T10:00:58.584Z,99462.34
2022-11-18T10:03:30.014Z,99459.27
2022-11-18T10:05:58.407Z,99451.52
2022-11-18T10:08:37.398Z,99447.20
2022-11-18T10:11:18.150Z,99449.89
2022-11-18T10:14:19.796Z,99452.81
2022-11-18T10:16:59.215Z,99455.54
2022-11-18T10:19:39.015Z,99462.42
2022-11-18T10:22:22.728Z,99461.83
2022-11-18T10:24:55.222Z,99462.95
2022-11-18T10:27:27.501Z,99456.42
2022-11-18T10:30:00.527Z,99459.79
2022-11-18T10:32:29.149Z,99462.88
2022-11-18T10:34:59.059Z,99461.36
2022-11-18T10:40:30.119Z,99454.36
2022-11-18T10:42:59.329Z,99453.55
2022-11-18T10:45:31.034Z,99456.70
2022-11-18T10:48:19.266Z,99455.67
2022-11-18T10:50:55.517Z,99458.02
2022-11-18T10:53:32.194Z,99453.87
2022-11-18T10:56:09.488Z,99455.27
2022-11-18T10:58:46.816Z,99458.05
2022-11-18T11:01:25.602Z,99456.04
2022-11-18T11:04:00.580Z,99455.21
2022-11-18T11:06:39.576Z,99460.09
2022-11-18T11:09:13.540Z,99462.20
2022-11-18T11:12:07.678Z,99467.80
2022-11-18T11:14:42.183Z,99470.83
2022-11-18T11:17:15.568Z,99468.83
2022-11-18T11:20:06.342Z,99468.02
2022-11-18T11:22:34.866Z,99461.92
2022-11-18T11:25:03.645Z,99459.67
2022-11-18T11:28:18.944Z,99462.64
2022-11-18T11:31:03.294Z,99458.95
2022-11-18T11:33:46.534Z,99459.91
2022-11-18T11:36:21.118Z,99465.38
2022-11-18T11:39:05.219Z,99467.98
2022-11-18T11:42:00.250Z,99469.44
2022-11-18T11:44:59.676Z,99471.55
2022-11-18T11:48:06.060Z,99468.25
2022-11-18T11:51:02.988Z,99475.49
2022-11-18T11:53:53.698Z,99475.37
2022-11-18T11:56:46.607Z,99473.99
2022-11-18T11:59:23.878Z,99471.77
2022-11-18T12:01:52.376Z,99479.08
2022-11-18T12:04:48.301Z,99478.06
2022-11-18T12:07:30.302Z,99482.25
2022-11-18T12:10:21.060Z,99480.48
2022-11-18T12:13:20.361Z,99485.41
2022-11-18T12:16:31.034Z,99483.25
2022-11-18T12:19:04.100Z,99485.95
2022-11-18T12:21:47.331Z,99477.56
2022-11-18T12:24:18.523Z,99477.93
2022-11-18T12:26:49.051Z,99478.95
2022-11-18T12:29:20.493Z,99476.14
2022-11-18T12:32:02.323Z,99470.31
2022-11-18T12:34:45.129Z,99473.74
2022-11-18T12:37:25.607Z,99473.24
2022-11-18T12:39:56.778Z,99473.55
2022-11-18T12:43:06.597Z,99477.19
2022-11-18T12:45:40.937Z,99479.38
2022-11-18T12:48:40.420Z,99478.41
2022-11-18T12:51:19.449Z,99482.34
2022-11-18T12:53:50.470Z,99482.59
2022-11-18T12:56:19.016Z,99483.41
2022-11-18T12:58:56.203Z,99483.52
2022-11-18T13:01:28.349Z,99481.98
2022-11-18T13:04:15.205Z,99483.31
2022-11-18T13:06:45.164Z,99477.82
2022-11-18T13:09:21.815Z,99484.25
2022-11-18T13:12:02.953Z,99481.89
2022-11-18T13:15:03.720Z,99485.85
2022-11-18T13:17:52.278Z,99484.83
2022-11-18T13:20:36.088Z,99485.43
2022-11-18T13:23:29.500Z,99484.35
2022-11-18T13:26:07.149Z,99484.64
2022-11-18T13:29:23.957Z,99482.49
2022-11-18T13:32:21.288Z,99494.11
2022-11-18T13:34:55.991Z,99499.25
2022-11-18T13:37:30.409Z,99502.38
2022-11-18T13:39:58.968Z,99501.45
2022-11-18T13:42:30.292Z,99500.66
2022-11-18T13:45:04.048Z,99504.91
2022-11-18T13:47:36.795Z,99506.92
2022-11-18T13:50:23.022Z,99514.98
2022-11-18T13:52:59.299Z,99513.57
2022-11-18T13:55:34.108Z,99520.69
2022-11-18T13:58:55.694Z,99519.93
2022-11-18T14:01:29.066Z,99520.85
2022-11-18T14:03:59.306Z,99524.86
2022-11-18T14:06:36.579Z,99522.70
2022-11-18T14:09:27.761Z,99528.73
2022-11-18T14:14:52.078Z,99532.46
2022-11-18T14:17:26.032Z,99533.72
2022-11-18T14:19:56.350Z,99532.73
2022-11-18T14:22:27.594Z,99528.66
2022-11-18T14:24:59.535Z,99529.77
2022-11-18T14:27:39.871Z,99528.83
2022-11-18T14:30:55.350Z,99529.40
2022-11-18T14:33:30.814Z,99532.21
2022-11-18T14:36:16.612Z,99532.08
2022-11-18T14:39:19.184Z,99533.63
2022-11-18T14:41:49.923Z,99539.15
2022-11-18T14:44:19.973Z,99539.86
2022-11-18T14:46:55.729Z,99540.41
2022-11-18T14:49:26.156Z,99539.25
2022-11-18T14:51:55.401Z,99542.33
2022-11-18T14:54:27.428Z,99539.80
2022-11-18T14:57:00.949Z,99545.28
2022-11-18T14:59:30.016Z,99553.80
2022-11-18T15:01:59.065Z,99552.09
2022-11-18T15:04:27.765Z,99552.58
2022-11-18T15:06:56.456Z,99554.46
2022-11-18T15:09:25.032Z,99558.07
2022-11-18T15:11:53.595Z,99560.80
2022-11-18T15:14:22.220Z,99559.48
2022-11-18T15:16:50.837Z,99562.23
2022-11-18T15:19:19.258Z,99566.19
2022-11-18T15:21:47.885Z,99569.29
2022-11-18T15:24:16.755Z,99572.70
2022-11-18T15:26:47.363Z,99574.77
2022-11-18T15:29:22.221Z,99574.63
2022-11-18T15:31:51.085Z,99579.93
2022-11-18T15:34:21.486Z,99582.17
2022-11-18T15:36:50.560Z,99577.61
2022-11-18T15:39:19.120Z,99578.15
2022-11-18T15:42:12.478Z,99580.73
2022-11-18T15:47:54.407Z,99586.59
2022-11-18T15:50:23.002Z,99585.75
2022-11-18T15:52:51.627Z,99591.36
2022-11-18T15:55:22.553Z,99597.84
2022-11-18T15:57:52.397Z,99599.55
2022-11-18T16:00:20.904Z,99597.04
2022-11-18T16:02:49.452Z,99594.51
2022-11-18T16:05:17.935Z,99600.34
2022-11-18T16:07:52.735Z,99603.44
2022-11-18T16:10:42.024Z,99610.97
2022-11-18T16:13:10.566Z,99614.04
2022-11-18T16:15:45.133Z,99614.89
2022-11-18T16:18:14.456Z,99615.58
2022-11-18T16:20:43.261Z,99615.74
2022-11-18T16:23:11.842Z,99622.21
2022-11-18T16:25:45.333Z,99626.98
2022-11-18T16:28:13.784Z,99632.08
2022-11-18T16:31:06.437Z,99633.95
2022-11-18T16:33:34.950Z,99640.23
2022-11-18T16:36:03.801Z,99642.95
2022-11-18T16:38:32.256Z,99644.13
2022-11-18T16:44:13.909Z,99648.54
2022-11-18T16:46:47.161Z,99647.69
2022-11-18T16:49:17.758Z,99651.60
2022-11-18T16:51:49.655Z,99650.08
2022-11-18T16:54:29.795Z,99654.14
2022-11-18T16:56:59.670Z,99652.62
2022-11-18T16:59:31.127Z,99653.45
2022-11-18T17:02:01.309Z,99654.30
2022-11-18T17:04:36.635Z,99657.35
2022-11-18T17:07:12.159Z,99661.62
2022-11-18T17:09:59.024Z,99659.92
2022-11-18T17:12:32.279Z,99664.16
2022-11-18T17:15:00.986Z,99667.07
2022-11-18T17:17:41.979Z,99669.13
2022-11-18T17:20:11.221Z,99669.80
2022-11-18T17:22:44.289Z,99674.56
2022-11-18T17:25:18.962Z,99673.37
2022-11-18T17:27:47.575Z,99672.52
2022-11-18T17:30:20.731Z,99674.73
2022-11-18T17:32:55.697Z,99676.25
2022-11-18T17:35:30.834Z,99676.76
2022-11-18T17:38:08.597Z,99679.48
2022-11-18T17:40:41.427Z,99682.73
2022-11-18T17:43:10.997Z,99685.80
2022-11-18T17:45:41.787Z,99689.89
2022-11-18T17:48:15.017Z,99687.66
2022-11-18T17:50:44.037Z,99685.29
2022-11-18T17:53:13.531Z,99688.85
2022-11-18T17:55:45.125Z,99692.10
2022-11-18T17:58:14.428Z,99691.75
2022-11-18T18:00:43.780Z,99692.46
2022-11-18T18:03:17.388Z,99695.20
2022-11-18T18:05:46.147Z,99691.83
2022-11-18T18:08:14.661Z,99695.23
2022-11-18T18:10:49.943Z,99697.96
2022-11-18T18:13:37.519Z,99699.48
2022-11-18T18:16:06.925Z,99697.60
2022-11-18T18:18:36.609Z,99707.14
2022-11-18T18:21:12.496Z,99706.45
2022-11-18T18:23:43.489Z,99712.42
2022-11-18T18:26:12.639Z,99712.07
2022-11-18T18:28:41.284Z,99713.61
2022-11-18T18:31:12.844Z,99717.73
2022-11-18T18:33:45.397Z,99719.92
2022-11-18T18:36:16.510Z,99721.61
2022-11-18T18:38:46.283Z,99726.20
2022-11-18T18:41:22.204Z,99729.97
2022-11-18T18:43:51.680Z,99728.95
2022-11-18T18:46:35.134Z,99727.08
2022-11-18T18:49:11.348Z,99725.55
2022-11-18T18:51:43.104Z,99722.81
2022-11-18T18:54:14.636Z,99724.86
2022-11-18T18:56:44.939Z,99727.25
2022-11-18T18:59:15.074Z,99726.91
2022-11-18T19:01:44.637Z,99730.16
2022-11-18T19:04:18.699Z,99735.27
2022-11-18T19:06:58.339Z,99738.67
2022-11-18T19:09:46.498Z,99743.45
2022-11-18T19:12:39.886Z,99744.98
2022-11-18T19:15:12.444Z,99747.19
2022-11-18T19:17:41.916Z,99749.58
2022-11-18T19:20:37.471Z,99750.27
2022-11-18T19:23:12.684Z,99752.31
2022-11-18T19:25:46.362Z,99753.85
2022-11-18T19:28:20.188Z,99753.17
2022-11-18T19:30:50.891Z,99757.43
2022-11-18T19:33:26.264Z,99753.52
2022-11-18T19:36:07.230Z,99754.72
2022-11-18T19:38:41.345Z,99755.06
2022-11-18T19:41:17.406Z,99754.71
2022-11-18T19:43:47.165Z,99756.92
2022-11-18T19:46:16.325Z,99758.48
2022-11-18T19:48:48.933Z,99758.12
2022-11-18T19:51:19.251Z,99762.73
2022-11-18T19:53:57.083Z,99764.44
2022-11-18T19:56:29.666Z,99767.33
2022-11-18T19:59:00.510Z,99767.16
2022-11-18T20:01:30.907Z,99769.55
2022-11-18T20:04:06.150Z,99768.20
2022-11-18T20:06:43.890Z,99771.11
2022-11-18T20:09:14.033Z,99768.72
2022-11-18T20:11:44.175Z,99771.96
2022-11-18T20:14:14.595Z,99773.15
2022-11-18T20:16:44.240Z,99774.54
2022-11-18T20:19:14.389Z,99777.09
2022-11-18T20:21:44.132Z,99779.13
2022-11-18T20:24:18.885Z,99784.25
2022-11-18T20:26:49.264Z,99787.14
2022-11-18T20:29:21.781Z,99789.68
2022-11-18T20:31:51.843Z,99786.63
2022-11-18T20:34:27.277Z,99788.84
2022-11-18T20:36:57.504Z,99796.33
2022-11-18T20:39:26.798Z,99803.83
2022-11-18T20:42:14.320Z,99801.29
2022-11-18T20:44:45.484Z,99805.88
2022-11-18T20:47:16.234Z,99806.40
2022-11-18T20:49:46.333Z,99801.98
2022-11-18T20:52:15.730Z,99812.36
2022-11-18T20:54:46.081Z,99811.16
2022-11-18T20:57:15.373Z,99814.56
2022-11-18T20:59:44.879Z,99819.33
2022-11-18T21:02:13.771Z,99818.66
2022-11-18T21:04:42.556Z,99821.37
2022-11-18T21:07:11.077Z,99819.34
2022-11-18T21:09:46.261Z,99815.92
2022-11-18T21:12:19.666Z,99820.70
2022-11-18T21:14:50.459Z,99822.23
2022-11-18T21:17:24.453Z,99822.23
2022-11-18T21:20:32.001Z,99821.55
2022-11-18T21:23:02.848Z,99821.72
2022-11-18T21:32:01.869Z,99828.20
2022-11-18T21:34:30.686Z,99826.33
2022-11-18T21:36:59.628Z,99831.93
2022-11-18T21:39:28.454Z,99833.83
2022-11-18T21:42:01.788Z,99836.04
2022-11-18T21:44:36.849Z,99840.45
2022-11-18T21:47:06.519Z,99843.02
2022-11-18T21:49:41.462Z,99845.91
2022-11-18T21:52:16.256Z,99845.05
2022-11-18T21:54:48.956Z,99847.25
2022-11-18T21:57:19.880Z,99849.13
2022-11-18T21:59:48.249Z,99855.23
2022-11-18T22:02:16.790Z,99848.45
2022-11-18T22:04:57.616Z,99848.77
2022-11-18T22:07:30.824Z,99847.77
2022-11-18T22:10:05.723Z,99847.41
2022-11-18T22:12:38.979Z,99847.08
2022-11-18T22:15:18.158Z,99849.94
2022-11-18T22:17:51.282Z,99855.20
2022-11-18T22:20:26.128Z,99855.87
2022-11-18T22:23:01.933Z,99859.24
2022-11-18T22:25:40.870Z,99863.63
2022-11-18T22:28:14.258Z,99861.73
2022-11-18T22:30:48.280Z,99863.06
2022-11-18T22:33:21.301Z,99863.04
2022-11-18T22:36:09.219Z,99866.38
2022-11-18T22:38:46.577Z,99873.64
2022-11-18T22:41:45.382Z,99874.47
2022-11-18T22:44:33.676Z,99873.80
2022-11-18T22:47:06.912Z,99871.89
2022-11-18T22:49:42.162Z,99876.80
2022-11-18T22:52:10.694Z,99875.08
2022-11-18T22:54:45.555Z,99873.87
2022-11-18T22:57:20.478Z,99875.89
2022-11-18T22:59:55.387Z,99875.33
2022-11-18T23:02:49.725Z,99879.05
2022-11-18T23:05:31.729Z,99874.41
2022-11-18T23:08:06.705Z,99876.23
2022-11-18T23:10:39.902Z,99873.64
2022-11-18T23:13:33.325Z,99870.70
2022-11-18T23:16:08.289Z,99872.85
2022-11-18T23:18:44.862Z,99874.83
2022-11-18T23:21:19.336Z,99879.18
2022-11-18T23:23:54.314Z,99873.70
2022-11-18T23:26:32.983Z,99877.74
2022-11-18T23:29:08.004Z,99874.20
2022-11-18T23:31:45.162Z,99874.18
2022-11-18T23:34:18.332Z,99871.95
2022-11-18T23:36:54.860Z,99873.11
2022-11-18T23:39:33.398Z,99874.27
2022-11-18T23:42:06.724Z,99874.21
2022-11-18T23:44:49.554Z,99877.38
2022-11-18T23:47:22.730Z,99875.30
2022-11-18T23:49:57.468Z,99872.52
2022-11-18T23:52:45.656Z,99876.84
